Flight Track Log - Related Links

Times and Time Zones

All times are in EDT time to prevent confusion due to time zone crossing. See the KAP46 flight status page for this flight to view local times or setup timezone preferences in your user account.

Time Position Orientation Groundspeed Altitude Reporting Facility
EDT Latitude Longitude Course Direction KTS MPH feet Rate Location/Type
Fri 06:55:00 PM 42.7839 -73.8064 338° Northwest 120 138 1,200  Level Boston Center
Fri 06:56:01 PM 42.8214 -73.8272 338° Northwest 142 163 1,700 545 Climbing Boston Center
Fri 06:57:01 PM 42.8586 -73.8422 344° North 138 159 2,300 595 Climbing Boston Center
Fri 06:58:02 PM 42.8939 -73.8569 343° North 130 150 2,900 595 Climbing Boston Center
Fri 06:59:02 PM 42.9292 -73.8750 339° North 130 150 3,500 595 Climbing Boston Center
Fri 07:00:03 PM 42.9642 -73.8928 340° North 133 153 4,100 492 Climbing Boston Center
Fri 07:01:04 PM 42.9994 -73.9078 343° North 137 158 4,500 393 Climbing Boston Center
Fri 07:02:05 PM 43.0367 -73.9258 340° North 144 166 4,900 446 Climbing Boston Center
Fri 07:03:05 PM 43.0719 -73.9408 343° North 139 160 5,400 496 Climbing Boston Center
Fri 07:04:06 PM 43.1092 -73.9617 338° Northwest 142 163 5,900 492 Climbing Boston Center
Fri 07:05:07 PM 43.1508 -73.9797 342° North 142 163 6,400 347 Climbing Boston Center
Fri 07:06:07 PM 43.1900 -73.9950 344° North 148 170 6,600 91 Climbing Boston Center
Fri 07:07:19 PM 43.2419 -74.0219 339° North 172 198 6,600 45 Level Boston Center
Fri 07:08:19 PM 43.2728 -74.0397 337° Northwest 165 190 6,700  Climbing Boston Center
Fri 07:09:19 PM 43.3225 -74.0639 341° North 157 181 6,600 -50 Descending Boston Center
Fri 07:10:19 PM 43.3597 -74.0822 340° North 151 174 6,600  Level Boston Center
Fri 07:11:18 PM 43.3992 -74.0947 347° North 151 174 6,600  Level Boston Center
Fri 07:12:19 PM 43.4447 -74.1158 341° North 151 174 6,600  Level Boston Center
Fri 07:13:18 PM 43.4778 -74.1283 345° North 151 174 6,600 -50 Level Boston Center
Fri 07:14:19 PM 43.5275 -74.1525 341° North 156 180 6,500  Descending Boston Center
Fri 07:15:30 PM 43.5711 -74.1739 340° North 156 180 6,600  Climbing Boston Center
Fri 07:16:31 PM 43.6186 -74.2011 337° Northwest 151 174 6,500  Descending Boston Center
Fri 07:17:31 PM 43.6578 -74.2194 341° North 151 174 6,600 50 Climbing Boston Center
Fri 07:18:31 PM 43.7014 -74.2378 343° North 151 174 6,600 -50 Level Boston Center
Fri 07:19:31 PM 43.7447 -74.2564 343° North 146 168 6,500  Descending Boston Center
Fri 07:20:31 PM 43.7819 -74.2747 340° North 146 168 6,600 50 Climbing Boston Center
Fri 07:21:31 PM 43.8253 -74.2961 340° North 146 168 6,600  Level Boston Center
Fri 07:22:31 PM 43.8689 -74.3178 340° North 151 174 6,600  Level Boston Center
Fri 07:23:31 PM 43.9122 -74.3392 340° North 151 174 6,600  Level Boston Center
Fri 07:24:31 PM 43.9514 -74.3636 336° Northwest 151 174 6,600  Level Boston Center
Fri 07:25:31 PM 43.9947 -74.3911 335° Northwest 151 174 6,600 -50 Level Boston Center
Fri 07:26:31 PM 44.0342 -74.4067 344° North 151 174 6,500 -50 Descending Boston Center
Fri 07:27:31 PM 44.0817 -74.4283 342° North 151 174 6,500 50 Level Boston Center
Fri 07:28:31 PM 44.1250 -74.4503 340° North 151 174 6,600  Climbing Boston Center
Fri 07:29:31 PM 44.1683 -74.4689 343° North 159 183 6,500  Descending Boston Center
Fri 07:30:31 PM 44.2139 -74.4908 341° North 159 183 6,600  Climbing Boston Center
Fri 07:31:31 PM 44.2572 -74.5069 345° North 165 190 6,500 -50 Descending Boston Center
Fri 07:32:31 PM 44.3028 -74.5258 343° North 165 190 6,500 50 Level Boston Center
Fri 07:33:30 PM 44.3358 -74.5386 345° North 165 190 6,600 -50 Climbing Boston Center
Fri 07:34:31 PM 44.3878 -74.5578 345° North 165 190 6,400 -347 Descending Boston Center
Fri 07:35:31 PM 44.4394 -74.5831 341° North 165 190 5,900 -500 Descending Boston Center
Fri 07:36:31 PM 44.4867 -74.6167 333° Northwest 170 196 5,400 -550 Descending Boston Center
Fri 07:37:31 PM 44.5383 -74.6419 341° North 181 208 4,800 -350 Descending Boston Center
Fri 07:38:31 PM 44.5878 -74.6700 338° Northwest 181 208 4,700 850 Descending Boston Center
Fri 07:39:31 PM 44.6353 -74.6922 342° North 181 208 6,500 1,800 Climbing Boston Center

Login

Don't have an account? Register now (free) for customized features, flight alerts, and more!